Terminal Aerodrome Forecast
Issued by NWS Lake Charles, LA

Home | Current Version | Previous Version | Text Only | Print | Product List | Glossary On
Versions: 1 2 3 4 5 6 7 8 9 10 11 12 13 14 15 16 17 18 19
000
FTUS44 KLCH 310500
TAFBPT
TAF
KBPT 310520Z 3106/0106 14005KT P6SM VCSH SCT015 BKN120
      TEMPO 3106/3108 BKN015
     FM311400 13006KT P6SM VCTS SCT025CB BKN050
     FM311800 16011KT P6SM VCTS SCT025CB BKN050 PROB30 3118/3124 4SM
      -TSRA BKN025CB=

USA.gov is the U.S. government's official web portal to all federal, state and local government web resources and services.